Aeroporto :
LOGIN :

Iscrizione | Disclaimer

   EN    FR    IT 

 










Sommario :    VFR   VFR Marginale   IFR   IFR Intensivo   IFR Molto Intensivo
Visibilità : 
Base nubi : 
>= 8 km
>= 3000ft
5 / 8 km
1000 / 3000 ft
1500m / 5 km
500 / 1000 ft
800 / 1500m
200 / 500 ft
< 800m
< 200 ft
Simboli :   Temporali  Nebbia  Neve Forte  Precipitazioni Forti  Vento > 20 kt
SIGMETs :   Varie  Temporali  Ghiacco  Turbolenza  Onda orograficha  Ceneri Vulcaniche






- Altitudine del aeroporto : 348 ft
- Codice IATA : LDV


LFRJ - Landivisiau

ULTIMO METAR :
  • 251830Z AUTO 04008KT CAVOK 18/08 Q1034 NOSIG

METARs OBSOLETI :
  • 251800Z AUTO 04010KT 010V070 CAVOK 18/07 Q1034 NOSIG
  • 251730Z AUTO 03010KT 360V080 CAVOK 19/08 Q1034 NOSIG
  • 251700Z AUTO 03010KT 350V060 CAVOK 20/08 Q1034 NOSIG
  • 251630Z AUTO 04010KT CAVOK 20/08 Q1034 NOSIG
  • 251600Z AUTO 03009KT 350V060 CAVOK 21/08 Q1034 NOSIG

TAF TAF LFRJ
Valido dal 25 a 18 ore il 26 a 03 ore UTC


251700Z 2518/2603 04005KT CAVOK



MetMap, La meteo Aeronautica in un colpo d'occhio ! - Copyright ORBIFLY Dicembre 2007 - Disclaimer

ORBIFLY MET'MAP TEAM :

Programmazione e sviluppo : Alexandra Zaïnal
Concezione : Baudouin d'Aumeries
Aiuto per la programmazione : Marc-Olivier Méhu
Supporto tecnico e logistico : Manuel Goepfert
Aiuto per la traduzione : Arnaldo La Scala

Contatto : metmap@orbifly.com




FONTI E CREDITI :

   NOAA